sensor_id;sensor_type;location;lat;lon;timestamp;temperature;humidity
60727;DHT22;46577;49.004;12.120;2023-02-27T00:02:10;-1.10;99.90
60727;DHT22;46577;49.004;12.120;2023-02-27T00:04:36;-1.10;99.90
60727;DHT22;46577;49.004;12.120;2023-02-27T00:07:02;-1.00;99.90
60727;DHT22;46577;49.004;12.120;2023-02-27T00:09:27;-1.00;99.90
60727;DHT22;46577;49.004;12.120;2023-02-27T00:11:53;-0.90;99.90
60727;DHT22;46577;49.004;12.120;2023-02-27T00:14:19;-0.90;99.90
60727;DHT22;46577;49.004;12.120;2023-02-27T00:16:44;-0.90;99.90
60727;DHT22;46577;49.004;12.120;2023-02-27T00:19:10;-0.80;99.90
60727;DHT22;46577;49.004;12.120;2023-02-27T00:21:37;-0.80;99.90
60727;DHT22;46577;49.004;12.120;2023-02-27T00:24:03;-0.80;99.90
60727;DHT22;46577;49.004;12.120;2023-02-27T00:26:28;-0.90;99.90
60727;DHT22;46577;49.004;12.120;2023-02-27T00:28:54;-0.90;99.90
60727;DHT22;46577;49.004;12.120;2023-02-27T00:31:20;-0.90;99.90
60727;DHT22;46577;49.004;12.120;2023-02-27T00:33:46;-0.90;99.90
60727;DHT22;46577;49.004;12.120;2023-02-27T00:36:11;-0.90;99.90
60727;DHT22;46577;49.004;12.120;2023-02-27T00:38:37;-0.90;99.90
60727;DHT22;46577;49.004;12.120;2023-02-27T00:41:03;-0.90;99.90
60727;DHT22;46577;49.004;12.120;2023-02-27T00:43:28;-0.90;99.90
60727;DHT22;46577;49.004;12.120;2023-02-27T00:45:54;-1.00;99.90
60727;DHT22;46577;49.004;12.120;2023-02-27T00:48:20;-0.90;99.90
60727;DHT22;46577;49.004;12.120;2023-02-27T00:50:45;-0.90;99.90
60727;DHT22;46577;49.004;12.120;2023-02-27T00:53:11;-1.00;99.90
60727;DHT22;46577;49.004;12.120;2023-02-27T00:55:36;-0.90;99.90
60727;DHT22;46577;49.004;12.120;2023-02-27T00:58:02;1.50;99.90
60727;DHT22;46577;49.004;12.120;2023-02-27T01:00:28;-1.00;99.90
60727;DHT22;46577;49.004;12.120;2023-02-27T01:02:53;-1.00;99.90
60727;DHT22;46577;49.004;12.120;2023-02-27T01:05:19;-1.10;99.90
60727;DHT22;46577;49.004;12.120;2023-02-27T01:07:45;-1.10;99.90
60727;DHT22;46577;49.004;12.120;2023-02-27T01:10:11;-1.10;99.90
60727;DHT22;46577;49.004;12.120;2023-02-27T01:12:38;-1.10;99.90
60727;DHT22;46577;49.004;12.120;2023-02-27T01:15:05;-1.10;99.90
60727;DHT22;46577;49.004;12.120;2023-02-27T01:17:31;-1.10;99.90
60727;DHT22;46577;49.004;12.120;2023-02-27T01:19:58;-1.10;99.90
60727;DHT22;46577;49.004;12.120;2023-02-27T01:22:23;-0.90;99.90
60727;DHT22;46577;49.004;12.120;2023-02-27T01:24:49;-1.00;99.90
60727;DHT22;46577;49.004;12.120;2023-02-27T01:27:15;-1.00;99.90
60727;DHT22;46577;49.004;12.120;2023-02-27T01:29:40;-1.00;99.90
60727;DHT22;46577;49.004;12.120;2023-02-27T01:32:06;-1.00;99.90
60727;DHT22;46577;49.004;12.120;2023-02-27T01:34:32;-1.00;99.90
60727;DHT22;46577;49.004;12.120;2023-02-27T01:36:57;-1.00;99.90
60727;DHT22;46577;49.004;12.120;2023-02-27T01:39:23;-1.00;99.90
60727;DHT22;46577;49.004;12.120;2023-02-27T01:41:50;-1.00;99.90
60727;DHT22;46577;49.004;12.120;2023-02-27T01:44:16;-0.90;99.90
60727;DHT22;46577;49.004;12.120;2023-02-27T01:46:42;-0.90;99.90
60727;DHT22;46577;49.004;12.120;2023-02-27T01:49:15;-0.80;99.90
60727;DHT22;46577;49.004;12.120;2023-02-27T01:51:48;-0.80;99.90
60727;DHT22;46577;49.004;12.120;2023-02-27T01:54:17;-0.90;99.90
60727;DHT22;46577;49.004;12.120;2023-02-27T01:56:44;-0.90;99.90
60727;DHT22;46577;49.004;12.120;2023-02-27T01:59:10;-0.90;99.90
60727;DHT22;46577;49.004;12.120;2023-02-27T02:01:37;-0.90;99.90
60727;DHT22;46577;49.004;12.120;2023-02-27T02:04:21;-0.90;99.90
60727;DHT22;46577;49.004;12.120;2023-02-27T02:06:52;-0.90;99.90
60727;DHT22;46577;49.004;12.120;2023-02-27T02:09:19;-0.90;99.90
60727;DHT22;46577;49.004;12.120;2023-02-27T02:11:46;-0.90;99.90
60727;DHT22;46577;49.004;12.120;2023-02-27T02:14:13;-0.90;99.90
60727;DHT22;46577;49.004;12.120;2023-02-27T02:31:16;-0.50;99.90
60727;DHT22;46577;49.004;12.120;2023-02-27T02:45:38;-0.30;99.90
60727;DHT22;46577;49.004;12.120;2023-02-27T02:48:17;-0.30;99.90
60727;DHT22;46577;49.004;12.120;2023-02-27T02:56:09;-0.20;99.90
60727;DHT22;46577;49.004;12.120;2023-02-27T02:58:55;-0.20;99.90
60727;DHT22;46577;49.004;12.120;2023-02-27T03:01:30;-0.20;99.90
60727;DHT22;46577;49.004;12.120;2023-02-27T03:04:03;-0.20;99.90
60727;DHT22;46577;49.004;12.120;2023-02-27T03:06:32;-0.20;99.90
60727;DHT22;46577;49.004;12.120;2023-02-27T03:09:11;-0.20;99.90
60727;DHT22;46577;49.004;12.120;2023-02-27T03:11:40;-0.20;99.90
60727;DHT22;46577;49.004;12.120;2023-02-27T03:14:19;-0.30;99.90
60727;DHT22;46577;49.004;12.120;2023-02-27T03:16:49;-0.20;99.90
60727;DHT22;46577;49.004;12.120;2023-02-27T03:19:26;-0.20;99.90
60727;DHT22;46577;49.004;12.120;2023-02-27T03:22:00;-0.30;99.90
60727;DHT22;46577;49.004;12.120;2023-02-27T03:24:48;-0.30;99.90
60727;DHT22;46577;49.004;12.120;2023-02-27T03:27:15;-0.20;99.90
60727;DHT22;46577;49.004;12.120;2023-02-27T03:29:56;-0.20;99.90
60727;DHT22;46577;49.004;12.120;2023-02-27T03:32:34;-0.20;99.90
60727;DHT22;46577;49.004;12.120;2023-02-27T03:35:04;-0.30;99.90
60727;DHT22;46577;49.004;12.120;2023-02-27T03:40:36;-0.30;99.90
60727;DHT22;46577;49.004;12.120;2023-02-27T03:48:47;-0.30;99.90
60727;DHT22;46577;49.004;12.120;2023-02-27T03:51:16;-0.30;99.90
60727;DHT22;46577;49.004;12.120;2023-02-27T03:53:51;-0.30;99.90
60727;DHT22;46577;49.004;12.120;2023-02-27T03:56:23;-0.30;99.90
60727;DHT22;46577;49.004;12.120;2023-02-27T03:58:50;-0.20;99.90
60727;DHT22;46577;49.004;12.120;2023-02-27T04:01:16;-0.20;99.90
60727;DHT22;46577;49.004;12.120;2023-02-27T04:03:48;-0.10;99.90
60727;DHT22;46577;49.004;12.120;2023-02-27T04:06:15;-0.10;99.90
60727;DHT22;46577;49.004;12.120;2023-02-27T04:09:15;-0.10;99.90
60727;DHT22;46577;49.004;12.120;2023-02-27T04:12:03;-0.20;99.90
60727;DHT22;46577;49.004;12.120;2023-02-27T04:22:58;-0.40;99.90
60727;DHT22;46577;49.004;12.120;2023-02-27T04:25:58;-0.40;99.90
60727;DHT22;46577;49.004;12.120;2023-02-27T04:31:29;-0.50;99.90
60727;DHT22;46577;49.004;12.120;2023-02-27T04:34:02;-0.50;99.90
60727;DHT22;46577;49.004;12.120;2023-02-27T04:36:36;-0.60;99.90
60727;DHT22;46577;49.004;12.120;2023-02-27T04:39:07;-0.60;99.90
60727;DHT22;46577;49.004;12.120;2023-02-27T04:41:47;-0.60;99.90
60727;DHT22;46577;49.004;12.120;2023-02-27T04:44:16;-0.70;99.90
60727;DHT22;46577;49.004;12.120;2023-02-27T04:46:43;-0.80;99.90
60727;DHT22;46577;49.004;12.120;2023-02-27T04:49:30;-0.80;99.90
60727;DHT22;46577;49.004;12.120;2023-02-27T04:52:11;-0.80;99.90
60727;DHT22;46577;49.004;12.120;2023-02-27T04:54:42;-1.00;99.90
60727;DHT22;46577;49.004;12.120;2023-02-27T04:57:14;-1.00;99.90
60727;DHT22;46577;49.004;12.120;2023-02-27T04:59:44;-1.10;99.90
60727;DHT22;46577;49.004;12.120;2023-02-27T05:02:14;-1.10;99.90
60727;DHT22;46577;49.004;12.120;2023-02-27T05:04:43;-1.10;99.90
60727;DHT22;46577;49.004;12.120;2023-02-27T05:07:14;-1.10;99.90
60727;DHT22;46577;49.004;12.120;2023-02-27T05:09:48;-1.20;99.90
60727;DHT22;46577;49.004;12.120;2023-02-27T05:12:28;-1.30;99.90
60727;DHT22;46577;49.004;12.120;2023-02-27T05:15:17;-1.30;99.90
60727;DHT22;46577;49.004;12.120;2023-02-27T05:17:57;-1.30;99.90
60727;DHT22;46577;49.004;12.120;2023-02-27T05:20:29;-1.30;99.90
60727;DHT22;46577;49.004;12.120;2023-02-27T05:23:19;-1.30;99.90
60727;DHT22;46577;49.004;12.120;2023-02-27T05:26:10;-1.20;99.90
60727;DHT22;46577;49.004;12.120;2023-02-27T05:31:32;-1.20;99.90
60727;DHT22;46577;49.004;12.120;2023-02-27T05:34:13;-1.10;99.90
60727;DHT22;46577;49.004;12.120;2023-02-27T05:36:55;-1.00;99.90
60727;DHT22;46577;49.004;12.120;2023-02-27T05:39:23;-1.00;99.90
60727;DHT22;46577;49.004;12.120;2023-02-27T05:41:53;-1.00;99.90
60727;DHT22;46577;49.004;12.120;2023-02-27T05:44:24;-1.00;99.90
60727;DHT22;46577;49.004;12.120;2023-02-27T05:46:55;-1.00;99.90
60727;DHT22;46577;49.004;12.120;2023-02-27T05:49:25;-1.00;99.90
60727;DHT22;46577;49.004;12.120;2023-02-27T05:51:54;-1.10;99.90
60727;DHT22;46577;49.004;12.120;2023-02-27T05:54:28;-1.00;99.90
60727;DHT22;46577;49.004;12.120;2023-02-27T05:56:58;-1.00;99.90
60727;DHT22;46577;49.004;12.120;2023-02-27T05:59:33;-0.90;99.90
60727;DHT22;46577;49.004;12.120;2023-02-27T06:02:00;-1.00;99.90
60727;DHT22;46577;49.004;12.120;2023-02-27T06:04:26;-1.10;99.90
60727;DHT22;46577;49.004;12.120;2023-02-27T06:06:51;-1.10;99.90
60727;DHT22;46577;49.004;12.120;2023-02-27T06:09:18;-1.20;99.90
60727;DHT22;46577;49.004;12.120;2023-02-27T06:11:44;-1.20;99.90
60727;DHT22;46577;49.004;12.120;2023-02-27T06:14:10;-1.10;99.90
60727;DHT22;46577;49.004;12.120;2023-02-27T06:16:36;-1.10;99.90
60727;DHT22;46577;49.004;12.120;2023-02-27T06:19:04;-1.00;99.90
60727;DHT22;46577;49.004;12.120;2023-02-27T06:21:30;-1.00;99.90
60727;DHT22;46577;49.004;12.120;2023-02-27T06:23:56;-1.00;99.90
60727;DHT22;46577;49.004;12.120;2023-02-27T06:26:21;-0.80;99.90
60727;DHT22;46577;49.004;12.120;2023-02-27T06:28:47;-0.70;99.90
60727;DHT22;46577;49.004;12.120;2023-02-27T06:31:12;-0.70;99.90
60727;DHT22;46577;49.004;12.120;2023-02-27T06:33:38;-0.70;99.90
60727;DHT22;46577;49.004;12.120;2023-02-27T06:36:04;-0.70;99.90
60727;DHT22;46577;49.004;12.120;2023-02-27T06:38:29;-0.70;99.90
60727;DHT22;46577;49.004;12.120;2023-02-27T06:40:55;-0.70;99.90
60727;DHT22;46577;49.004;12.120;2023-02-27T06:43:21;-0.70;99.90
60727;DHT22;46577;49.004;12.120;2023-02-27T06:45:48;-0.70;99.90
60727;DHT22;46577;49.004;12.120;2023-02-27T06:48:13;-0.70;99.90
60727;DHT22;46577;49.004;12.120;2023-02-27T06:50:39;-0.60;99.90
60727;DHT22;46577;49.004;12.120;2023-02-27T06:53:05;-0.60;99.90
60727;DHT22;46577;49.004;12.120;2023-02-27T06:55:31;-0.50;99.90
60727;DHT22;46577;49.004;12.120;2023-02-27T06:57:57;-0.30;99.90
60727;DHT22;46577;49.004;12.120;2023-02-27T07:00:23;-0.10;99.90
60727;DHT22;46577;49.004;12.120;2023-02-27T07:02:49;-0.10;99.90
60727;DHT22;46577;49.004;12.120;2023-02-27T07:05:14;0.00;99.90
60727;DHT22;46577;49.004;12.120;2023-02-27T07:07:40;0.10;99.90
60727;DHT22;46577;49.004;12.120;2023-02-27T07:10:08;0.20;99.90
60727;DHT22;46577;49.004;12.120;2023-02-27T07:12:36;0.30;99.90
60727;DHT22;46577;49.004;12.120;2023-02-27T07:15:03;0.40;99.90
60727;DHT22;46577;49.004;12.120;2023-02-27T07:17:29;0.50;99.90
60727;DHT22;46577;49.004;12.120;2023-02-27T07:19:56;0.50;99.90
60727;DHT22;46577;49.004;12.120;2023-02-27T07:22:21;0.50;99.90
60727;DHT22;46577;49.004;12.120;2023-02-27T07:24:47;0.70;99.90
60727;DHT22;46577;49.004;12.120;2023-02-27T07:27:13;0.80;99.90
60727;DHT22;46577;49.004;12.120;2023-02-27T07:29:38;0.90;99.90
60727;DHT22;46577;49.004;12.120;2023-02-27T07:32:04;0.90;99.90
60727;DHT22;46577;49.004;12.120;2023-02-27T07:34:30;0.90;99.90
60727;DHT22;46577;49.004;12.120;2023-02-27T07:36:55;0.80;99.90
60727;DHT22;46577;49.004;12.120;2023-02-27T07:39:21;0.80;99.90
60727;DHT22;46577;49.004;12.120;2023-02-27T07:41:46;0.90;99.90
60727;DHT22;46577;49.004;12.120;2023-02-27T07:44:12;1.00;99.90
60727;DHT22;46577;49.004;12.120;2023-02-27T07:46:38;1.10;99.90
60727;DHT22;46577;49.004;12.120;2023-02-27T07:49:03;1.20;99.90
60727;DHT22;46577;49.004;12.120;2023-02-27T07:51:29;1.20;99.90
60727;DHT22;46577;49.004;12.120;2023-02-27T07:53:56;1.20;99.90
60727;DHT22;46577;49.004;12.120;2023-02-27T07:56:22;1.30;99.90
60727;DHT22;46577;49.004;12.120;2023-02-27T07:58:48;1.30;99.90
60727;DHT22;46577;49.004;12.120;2023-02-27T08:01:14;1.40;99.90
60727;DHT22;46577;49.004;12.120;2023-02-27T08:03:39;1.40;99.90
60727;DHT22;46577;49.004;12.120;2023-02-27T08:06:05;1.50;99.90
60727;DHT22;46577;49.004;12.120;2023-02-27T08:08:31;1.60;99.60
60727;DHT22;46577;49.004;12.120;2023-02-27T08:10:56;1.70;99.60
60727;DHT22;46577;49.004;12.120;2023-02-27T08:13:23;1.90;99.10
60727;DHT22;46577;49.004;12.120;2023-02-27T08:15:48;2.00;99.30
60727;DHT22;46577;49.004;12.120;2023-02-27T08:18:14;2.10;98.60
60727;DHT22;46577;49.004;12.120;2023-02-27T08:20:39;2.20;98.50
60727;DHT22;46577;49.004;12.120;2023-02-27T08:23:05;2.30;98.20
60727;DHT22;46577;49.004;12.120;2023-02-27T08:25:31;2.90;98.40
60727;DHT22;46577;49.004;12.120;2023-02-27T08:27:57;4.90;95.80
60727;DHT22;46577;49.004;12.120;2023-02-27T08:30:23;7.60;85.30
60727;DHT22;46577;49.004;12.120;2023-02-27T08:32:49;9.90;64.10
60727;DHT22;46577;49.004;12.120;2023-02-27T08:35:15;11.40;52.80
60727;DHT22;46577;49.004;12.120;2023-02-27T08:37:40;11.90;47.30
60727;DHT22;46577;49.004;12.120;2023-02-27T08:40:06;12.40;43.90
60727;DHT22;46577;49.004;12.120;2023-02-27T08:42:33;12.70;41.20
60727;DHT22;46577;49.004;12.120;2023-02-27T08:44:59;13.40;40.00
60727;DHT22;46577;49.004;12.120;2023-02-27T08:47:24;14.10;36.70
60727;DHT22;46577;49.004;12.120;2023-02-27T08:49:50;14.60;35.10
60727;DHT22;46577;49.004;12.120;2023-02-27T08:52:16;14.80;34.10
60727;DHT22;46577;49.004;12.120;2023-02-27T08:54:41;15.90;33.70
60727;DHT22;46577;49.004;12.120;2023-02-27T08:57:07;16.20;30.70
60727;DHT22;46577;49.004;12.120;2023-02-27T08:59:33;15.90;30.80
60727;DHT22;46577;49.004;12.120;2023-02-27T09:01:59;14.20;30.90
60727;DHT22;46577;49.004;12.120;2023-02-27T09:04:25;9.90;38.30
60727;DHT22;46577;49.004;12.120;2023-02-27T09:06:50;8.60;41.40
60727;DHT22;46577;49.004;12.120;2023-02-27T09:09:18;9.20;41.40
60727;DHT22;46577;49.004;12.120;2023-02-27T09:11:43;8.70;42.10
60727;DHT22;46577;49.004;12.120;2023-02-27T09:14:10;7.70;43.10
60727;DHT22;46577;49.004;12.120;2023-02-27T09:16:36;7.30;44.60
60727;DHT22;46577;49.004;12.120;2023-02-27T09:19:02;6.50;46.20
60727;DHT22;46577;49.004;12.120;2023-02-27T09:21:28;5.70;48.00
60727;DHT22;46577;49.004;12.120;2023-02-27T09:23:54;5.20;49.20
60727;DHT22;46577;49.004;12.120;2023-02-27T09:26:23;5.00;50.10
60727;DHT22;46577;49.004;12.120;2023-02-27T09:28:48;5.00;50.50
60727;DHT22;46577;49.004;12.120;2023-02-27T09:31:15;5.00;50.60
60727;DHT22;46577;49.004;12.120;2023-02-27T09:33:42;5.10;51.00
60727;DHT22;46577;49.004;12.120;2023-02-27T09:36:10;5.50;50.60
60727;DHT22;46577;49.004;12.120;2023-02-27T09:38:36;5.70;51.60
60727;DHT22;46577;49.004;12.120;2023-02-27T09:41:04;7.50;50.20
60727;DHT22;46577;49.004;12.120;2023-02-27T09:43:34;10.60;43.70
60727;DHT22;46577;49.004;12.120;2023-02-27T09:46:02;11.00;43.40
60727;DHT22;46577;49.004;12.120;2023-02-27T09:48:49;13.50;36.70
60727;DHT22;46577;49.004;12.120;2023-02-27T09:51:16;11.30;33.60
60727;DHT22;46577;49.004;12.120;2023-02-27T09:53:50;10.20;34.90
60727;DHT22;46577;49.004;12.120;2023-02-27T10:06:55;6.40;43.50
60727;DHT22;46577;49.004;12.120;2023-02-27T10:09:34;6.50;43.80
60727;DHT22;46577;49.004;12.120;2023-02-27T10:17:50;5.60;42.60
60727;DHT22;46577;49.004;12.120;2023-02-27T10:20:30;5.00;43.80
60727;DHT22;46577;49.004;12.120;2023-02-27T10:23:00;4.60;45.40
60727;DHT22;46577;49.004;12.120;2023-02-27T10:25:28;4.20;46.70
60727;DHT22;46577;49.004;12.120;2023-02-27T10:28:00;4.10;47.70
60727;DHT22;46577;49.004;12.120;2023-02-27T10:30:30;4.20;49.20
60727;DHT22;46577;49.004;12.120;2023-02-27T10:33:09;4.30;48.10
60727;DHT22;46577;49.004;12.120;2023-02-27T10:35:42;4.20;48.00
60727;DHT22;46577;49.004;12.120;2023-02-27T10:38:20;4.30;47.80
60727;DHT22;46577;49.004;12.120;2023-02-27T10:40:52;5.10;47.30
60727;DHT22;46577;49.004;12.120;2023-02-27T10:43:19;5.70;45.40
60727;DHT22;46577;49.004;12.120;2023-02-27T10:45:45;5.90;45.70
60727;DHT22;46577;49.004;12.120;2023-02-27T10:48:12;5.50;44.50
60727;DHT22;46577;49.004;12.120;2023-02-27T10:50:42;5.40;45.30
60727;DHT22;46577;49.004;12.120;2023-02-27T10:53:26;5.20;45.40
60727;DHT22;46577;49.004;12.120;2023-02-27T10:56:19;5.20;45.90
60727;DHT22;46577;49.004;12.120;2023-02-27T11:01:12;5.40;46.60
60727;DHT22;46577;49.004;12.120;2023-02-27T11:03:39;6.10;44.40
60727;DHT22;46577;49.004;12.120;2023-02-27T11:06:12;6.50;43.40
60727;DHT22;46577;49.004;12.120;2023-02-27T11:08:44;6.50;43.00
60727;DHT22;46577;49.004;12.120;2023-02-27T11:11:12;6.10;44.40
60727;DHT22;46577;49.004;12.120;2023-02-27T11:13:42;5.90;45.50
60727;DHT22;46577;49.004;12.120;2023-02-27T11:16:14;6.70;45.50
60727;DHT22;46577;49.004;12.120;2023-02-27T11:18:45;7.30;42.30
60727;DHT22;46577;49.004;12.120;2023-02-27T11:26:18;6.90;41.60
60727;DHT22;46577;49.004;12.120;2023-02-27T11:28:44;6.20;44.10
60727;DHT22;46577;49.004;12.120;2023-02-27T11:31:20;5.80;46.40
60727;DHT22;46577;49.004;12.120;2023-02-27T11:33:54;5.50;47.10
60727;DHT22;46577;49.004;12.120;2023-02-27T11:36:42;5.30;46.80
60727;DHT22;46577;49.004;12.120;2023-02-27T11:39:33;5.40;47.30
60727;DHT22;46577;49.004;12.120;2023-02-27T11:42:11;5.00;48.10
60727;DHT22;46577;49.004;12.120;2023-02-27T11:47:40;4.90;48.60
60727;DHT22;46577;49.004;12.120;2023-02-27T11:52:59;5.10;49.00
60727;DHT22;46577;49.004;12.120;2023-02-27T11:55:27;5.50;48.20
60727;DHT22;46577;49.004;12.120;2023-02-27T11:58:01;5.70;47.70
60727;DHT22;46577;49.004;12.120;2023-02-27T12:00:32;5.90;47.30
60727;DHT22;46577;49.004;12.120;2023-02-27T12:03:12;6.00;47.80
60727;DHT22;46577;49.004;12.120;2023-02-27T12:05:44;6.20;48.00
60727;DHT22;46577;49.004;12.120;2023-02-27T12:11:06;9.50;43.10
60727;DHT22;46577;49.004;12.120;2023-02-27T12:13:40;10.50;37.80
60727;DHT22;46577;49.004;12.120;2023-02-27T12:19:21;8.80;39.80
60727;DHT22;46577;49.004;12.120;2023-02-27T12:21:52;7.90;42.20
60727;DHT22;46577;49.004;12.120;2023-02-27T12:24:32;7.10;42.60
60727;DHT22;46577;49.004;12.120;2023-02-27T12:27:15;7.20;44.10
60727;DHT22;46577;49.004;12.120;2023-02-27T12:29:48;7.50;43.20
60727;DHT22;46577;49.004;12.120;2023-02-27T12:32:33;7.10;43.50
60727;DHT22;46577;49.004;12.120;2023-02-27T12:35:28;7.50;43.40
60727;DHT22;46577;49.004;12.120;2023-02-27T12:37:55;7.50;43.10
60727;DHT22;46577;49.004;12.120;2023-02-27T12:48:57;6.10;44.70
60727;DHT22;46577;49.004;12.120;2023-02-27T12:51:48;5.80;45.40
60727;DHT22;46577;49.004;12.120;2023-02-27T12:57:28;8.00;43.20
60727;DHT22;46577;49.004;12.120;2023-02-27T13:00:13;8.90;40.40
60727;DHT22;46577;49.004;12.120;2023-02-27T13:11:23;8.70;38.70
60727;DHT22;46577;49.004;12.120;2023-02-27T13:14:01;7.80;40.80
60727;DHT22;46577;49.004;12.120;2023-02-27T13:16:45;7.30;41.80
60727;DHT22;46577;49.004;12.120;2023-02-27T13:19:47;7.20;42.30
60727;DHT22;46577;49.004;12.120;2023-02-27T13:24:57;7.20;42.40
60727;DHT22;46577;49.004;12.120;2023-02-27T13:27:36;6.60;41.60
60727;DHT22;46577;49.004;12.120;2023-02-27T13:32:51;5.60;43.60
60727;DHT22;46577;49.004;12.120;2023-02-27T13:38:02;5.50;43.80
60727;DHT22;46577;49.004;12.120;2023-02-27T13:40:36;5.30;44.10
60727;DHT22;46577;49.004;12.120;2023-02-27T13:43:26;5.00;44.60
60727;DHT22;46577;49.004;12.120;2023-02-27T13:45:57;5.20;45.00
60727;DHT22;46577;49.004;12.120;2023-02-27T13:50:59;5.20;45.80
60727;DHT22;46577;49.004;12.120;2023-02-27T13:53:26;5.00;46.40
60727;DHT22;46577;49.004;12.120;2023-02-27T13:56:15;4.80;46.20
60727;DHT22;46577;49.004;12.120;2023-02-27T13:58:42;4.50;46.70
60727;DHT22;46577;49.004;12.120;2023-02-27T14:01:21;4.10;47.10
60727;DHT22;46577;49.004;12.120;2023-02-27T14:03:55;3.90;48.20
60727;DHT22;46577;49.004;12.120;2023-02-27T14:06:25;3.80;48.20
60727;DHT22;46577;49.004;12.120;2023-02-27T14:08:53;3.90;48.80
60727;DHT22;46577;49.004;12.120;2023-02-27T14:11:24;4.10;48.90
60727;DHT22;46577;49.004;12.120;2023-02-27T14:26:59;4.60;48.60
60727;DHT22;46577;49.004;12.120;2023-02-27T14:29:28;4.60;48.80
60727;DHT22;46577;49.004;12.120;2023-02-27T14:31:59;4.40;49.10
60727;DHT22;46577;49.004;12.120;2023-02-27T14:34:26;4.40;49.70
60727;DHT22;46577;49.004;12.120;2023-02-27T14:36:57;4.20;50.20
60727;DHT22;46577;49.004;12.120;2023-02-27T14:39:33;4.10;51.10
60727;DHT22;46577;49.004;12.120;2023-02-27T14:45:04;3.40;51.90
60727;DHT22;46577;49.004;12.120;2023-02-27T14:47:36;3.10;52.40
60727;DHT22;46577;49.004;12.120;2023-02-27T14:50:04;3.10;53.40
60727;DHT22;46577;49.004;12.120;2023-02-27T14:52:39;3.00;52.90
60727;DHT22;46577;49.004;12.120;2023-02-27T15:02:33;2.60;53.30
60727;DHT22;46577;49.004;12.120;2023-02-27T15:07:33;2.80;52.40
60727;DHT22;46577;49.004;12.120;2023-02-27T15:10:03;2.50;53.70
60727;DHT22;46577;49.004;12.120;2023-02-27T15:12:29;2.50;54.50
60727;DHT22;46577;49.004;12.120;2023-02-27T15:14:59;2.40;54.40
60727;DHT22;46577;49.004;12.120;2023-02-27T15:17:38;2.30;53.50
60727;DHT22;46577;49.004;12.120;2023-02-27T15:22:50;2.40;53.80
60727;DHT22;46577;49.004;12.120;2023-02-27T15:25:31;2.50;53.60
60727;DHT22;46577;49.004;12.120;2023-02-27T15:28:01;2.70;52.80
60727;DHT22;46577;49.004;12.120;2023-02-27T15:30:27;2.70;52.10
60727;DHT22;46577;49.004;12.120;2023-02-27T15:32:53;2.70;51.20
60727;DHT22;46577;49.004;12.120;2023-02-27T15:35:23;2.70;51.80
60727;DHT22;46577;49.004;12.120;2023-02-27T15:37:54;2.70;52.40
60727;DHT22;46577;49.004;12.120;2023-02-27T15:40:23;2.60;52.60
60727;DHT22;46577;49.004;12.120;2023-02-27T15:42:51;2.50;53.00
60727;DHT22;46577;49.004;12.120;2023-02-27T15:45:19;2.30;52.80
60727;DHT22;46577;49.004;12.120;2023-02-27T15:47:45;2.20;54.00
60727;DHT22;46577;49.004;12.120;2023-02-27T15:52:50;2.00;54.60
60727;DHT22;46577;49.004;12.120;2023-02-27T15:55:37;2.10;54.90
60727;DHT22;46577;49.004;12.120;2023-02-27T15:58:15;2.10;55.70
60727;DHT22;46577;49.004;12.120;2023-02-27T16:00:43;2.10;56.40
60727;DHT22;46577;49.004;12.120;2023-02-27T16:03:10;2.10;56.50
60727;DHT22;46577;49.004;12.120;2023-02-27T16:05:40;2.10;56.50
60727;DHT22;46577;49.004;12.120;2023-02-27T16:08:06;2.10;56.10
60727;DHT22;46577;49.004;12.120;2023-02-27T16:10:40;1.90;56.60
60727;DHT22;46577;49.004;12.120;2023-02-27T16:13:26;1.90;56.70
60727;DHT22;46577;49.004;12.120;2023-02-27T16:16:21;1.80;56.40
60727;DHT22;46577;49.004;12.120;2023-02-27T16:18:55;1.70;57.00
60727;DHT22;46577;49.004;12.120;2023-02-27T16:21:26;1.70;57.00
60727;DHT22;46577;49.004;12.120;2023-02-27T16:23:53;1.70;57.30
60727;DHT22;46577;49.004;12.120;2023-02-27T16:26:36;1.70;58.00
60727;DHT22;46577;49.004;12.120;2023-02-27T16:29:05;1.70;58.10
60727;DHT22;46577;49.004;12.120;2023-02-27T16:31:48;1.60;58.00
60727;DHT22;46577;49.004;12.120;2023-02-27T16:34:29;1.60;58.70
60727;DHT22;46577;49.004;12.120;2023-02-27T16:36:59;1.60;59.20
60727;DHT22;46577;49.004;12.120;2023-02-27T16:39:26;1.60;58.80
60727;DHT22;46577;49.004;12.120;2023-02-27T16:41:55;1.50;59.00
60727;DHT22;46577;49.004;12.120;2023-02-27T16:44:22;1.50;59.30
60727;DHT22;46577;49.004;12.120;2023-02-27T16:46:49;1.60;59.30
60727;DHT22;46577;49.004;12.120;2023-02-27T16:49:27;1.50;59.60
60727;DHT22;46577;49.004;12.120;2023-02-27T16:51:54;1.40;59.60
60727;DHT22;46577;49.004;12.120;2023-02-27T16:54:20;1.40;60.40
60727;DHT22;46577;49.004;12.120;2023-02-27T16:56:47;1.30;60.40
60727;DHT22;46577;49.004;12.120;2023-02-27T17:01:57;1.30;61.40
60727;DHT22;46577;49.004;12.120;2023-02-27T17:04:24;1.30;62.20
60727;DHT22;46577;49.004;12.120;2023-02-27T17:06:50;1.30;62.40
60727;DHT22;46577;49.004;12.120;2023-02-27T17:09:16;1.30;62.80
60727;DHT22;46577;49.004;12.120;2023-02-27T17:11:42;1.20;63.30
60727;DHT22;46577;49.004;12.120;2023-02-27T17:14:07;1.10;63.00
60727;DHT22;46577;49.004;12.120;2023-02-27T17:16:33;1.10;66.60
60727;DHT22;46577;49.004;12.120;2023-02-27T17:21:25;1.30;70.30
60727;DHT22;46577;49.004;12.120;2023-02-27T17:23:51;1.50;70.60
60727;DHT22;46577;49.004;12.120;2023-02-27T17:26:17;1.50;69.00
60727;DHT22;46577;49.004;12.120;2023-02-27T17:28:43;1.60;66.00
60727;DHT22;46577;49.004;12.120;2023-02-27T17:31:10;1.60;66.00
60727;DHT22;46577;49.004;12.120;2023-02-27T17:33:36;1.40;65.70
60727;DHT22;46577;49.004;12.120;2023-02-27T17:36:04;1.40;66.70
60727;DHT22;46577;49.004;12.120;2023-02-27T17:38:30;1.30;66.50
60727;DHT22;46577;49.004;12.120;2023-02-27T17:40:56;1.20;68.70
60727;DHT22;46577;49.004;12.120;2023-02-27T17:43:21;1.10;67.50
60727;DHT22;46577;49.004;12.120;2023-02-27T17:45:47;1.00;67.50
60727;DHT22;46577;49.004;12.120;2023-02-27T17:55:30;0.80;69.30
60727;DHT22;46577;49.004;12.120;2023-02-27T17:57:56;0.80;69.80
60727;DHT22;46577;49.004;12.120;2023-02-27T18:02:48;0.60;70.60
60727;DHT22;46577;49.004;12.120;2023-02-27T18:05:14;0.60;73.00
60727;DHT22;46577;49.004;12.120;2023-02-27T18:07:39;0.50;71.90
60727;DHT22;46577;49.004;12.120;2023-02-27T18:10:07;0.50;72.30
60727;DHT22;46577;49.004;12.120;2023-02-27T18:12:34;0.40;73.20
60727;DHT22;46577;49.004;12.120;2023-02-27T18:15:00;0.50;73.60
60727;DHT22;46577;49.004;12.120;2023-02-27T18:17:26;0.50;74.20
60727;DHT22;46577;49.004;12.120;2023-02-27T18:19:52;0.50;74.70
60727;DHT22;46577;49.004;12.120;2023-02-27T18:22:17;0.50;75.20
60727;DHT22;46577;49.004;12.120;2023-02-27T18:24:46;0.50;75.90
60727;DHT22;46577;49.004;12.120;2023-02-27T18:27:12;0.40;76.10
60727;DHT22;46577;49.004;12.120;2023-02-27T18:29:38;0.40;76.70
60727;DHT22;46577;49.004;12.120;2023-02-27T18:32:07;0.40;77.10